createdAt,value
2023-05-01T00:00:51.554Z,2.9
2023-05-01T00:02:52.502Z,3
2023-05-01T00:04:51.255Z,2.8
2023-05-01T00:06:51.644Z,2.9
2023-05-01T00:08:51.511Z,3.5
2023-05-01T00:10:51.467Z,3.1
2023-05-01T00:12:51.688Z,3.5
2023-05-01T00:14:52.861Z,3.6
2023-05-01T00:16:51.860Z,3.4
2023-05-01T00:18:51.999Z,3.4
2023-05-01T00:20:51.931Z,3.7
2023-05-01T00:22:52.011Z,3.7
2023-05-01T00:24:52.196Z,3.6
2023-05-01T00:26:52.631Z,3.3
2023-05-01T00:28:52.325Z,3.6
2023-05-01T00:30:52.557Z,3.2
2023-05-01T00:32:52.552Z,3.8
2023-05-01T00:34:52.718Z,3.6
2023-05-01T00:36:53.377Z,4
2023-05-01T00:38:52.942Z,3.9
2023-05-01T00:40:52.860Z,4.2
2023-05-01T00:42:53.108Z,4.3
2023-05-01T00:44:53.142Z,3.1
2023-05-01T00:46:53.692Z,3.3
2023-05-01T00:48:53.360Z,3.4
2023-05-01T00:50:55.073Z,3.1
2023-05-01T00:52:53.622Z,3.1
2023-05-01T00:54:54.150Z,3.1
2023-05-01T00:56:54.080Z,2.8
2023-05-01T01:00:54.405Z,3
2023-05-01T01:02:54.055Z,2.8
2023-05-01T01:04:54.209Z,3.1
2023-05-01T01:07:03.273Z,2.7
2023-05-01T01:09:04.313Z,2.7
2023-05-01T01:11:01.126Z,2.5
2023-05-01T01:13:03.703Z,2.9
2023-05-01T01:15:06.079Z,2.8
2023-05-01T01:16:58.614Z,2.6
2023-05-01T01:19:04.660Z,3.3
2023-05-01T01:21:00.296Z,2.9
2023-05-01T01:23:17.579Z,2.9
2023-05-01T01:25:15.639Z,2.8
2023-05-01T01:27:18.459Z,2.6
2023-05-01T01:29:13.949Z,3
2023-05-01T01:31:11.504Z,3.2
2023-05-01T01:33:13.102Z,3.2
2023-05-01T01:35:00.561Z,3.1
2023-05-01T01:37:02.848Z,2.9
2023-05-01T01:39:02.906Z,3
2023-05-01T01:41:01.287Z,2.9
2023-05-01T01:43:01.844Z,3.2
2023-05-01T01:44:59.585Z,3.1
2023-05-01T01:46:58.489Z,3
2023-05-01T01:48:58.719Z,3.1
2023-05-01T01:50:58.326Z,3.4
2023-05-01T01:53:00.133Z,3.2
2023-05-01T01:55:03.029Z,3.4
2023-05-01T01:57:00.379Z,3.4
2023-05-01T01:58:58.267Z,3.7
2023-05-01T02:00:58.570Z,3.7
2023-05-01T02:02:59.805Z,3.3
2023-05-01T02:04:57.627Z,3.2
2023-05-01T02:06:59.279Z,5.5
2023-05-01T02:08:58.568Z,3.5
2023-05-01T02:11:00.886Z,2.8
2023-05-01T02:12:58.465Z,2.7
2023-05-01T02:14:59.324Z,2.7
2023-05-01T02:16:58.315Z,3
2023-05-01T02:18:58.593Z,2.8
2023-05-01T02:20:58.761Z,2.7
2023-05-01T02:22:58.612Z,2.7
2023-05-01T02:25:00.274Z,3.2
2023-05-01T02:27:03.058Z,2.4
2023-05-01T02:28:57.884Z,2.8
2023-05-01T02:30:58.472Z,3
2023-05-01T02:32:58.265Z,2.2
2023-05-01T02:34:58.257Z,2.5
2023-05-01T02:36:58.413Z,2.2
2023-05-01T02:38:58.483Z,2.2
2023-05-01T02:41:00.187Z,2.2
2023-05-01T02:43:00.147Z,2.3
2023-05-01T02:45:03.539Z,3
2023-05-01T02:47:01.137Z,2.6
2023-05-01T02:49:01.040Z,2.3
2023-05-01T02:51:01.091Z,2.6
2023-05-01T02:53:09.042Z,1.8
2023-05-01T02:54:59.458Z,1.7
2023-05-01T02:56:59.066Z,1.9
2023-05-01T02:58:59.281Z,1.8
2023-05-01T03:00:59.349Z,2
2023-05-01T03:02:59.379Z,2.2
2023-05-01T03:04:59.502Z,2.1
2023-05-01T03:07:00.294Z,1.9
2023-05-01T03:08:59.714Z,2
2023-05-01T03:10:59.659Z,1.9
2023-05-01T03:13:00.916Z,2.1
2023-05-01T03:14:59.944Z,2.1
2023-05-01T03:17:00.487Z,1.9
2023-05-01T03:19:00.125Z,2.3
2023-05-01T03:21:00.442Z,2.1
2023-05-01T03:23:00.300Z,2
2023-05-01T03:25:00.418Z,2.1
2023-05-01T03:27:01.390Z,1.8
2023-05-01T03:29:01.391Z,1.8
2023-05-01T03:31:00.932Z,1.4
2023-05-01T03:33:02.859Z,2
2023-05-01T03:35:01.114Z,1.9
2023-05-01T03:37:01.717Z,1.6
2023-05-01T03:39:01.122Z,1.7
2023-05-01T03:41:16.151Z,1.7
2023-05-01T03:43:01.342Z,1.6
2023-05-01T03:45:01.993Z,1.4
2023-05-01T03:47:02.247Z,1.7
2023-05-01T03:49:03.312Z,1.6
2023-05-01T03:51:02.089Z,1.5
2023-05-01T03:53:02.080Z,1.3
2023-05-01T03:55:14.284Z,2.2
2023-05-01T03:57:02.172Z,1.7
2023-05-01T03:59:03.342Z,1.6
2023-05-01T04:01:02.536Z,1.6
2023-05-01T04:03:03.381Z,1.8
2023-05-01T04:05:03.089Z,1.7
2023-05-01T04:07:02.680Z,1.6
2023-05-01T04:09:03.925Z,1.3
2023-05-01T04:11:04.151Z,2.2
2023-05-01T04:13:02.964Z,2
2023-05-01T04:15:03.399Z,1.7
2023-05-01T04:17:04.733Z,1.6
2023-05-01T04:19:04.795Z,1.5
2023-05-01T04:21:03.998Z,1.6
2023-05-01T04:23:04.300Z,1.7
2023-05-01T04:25:04.103Z,1.4
2023-05-01T04:27:03.767Z,1.3
2023-05-01T04:29:03.988Z,1.5
2023-05-01T04:31:04.341Z,1.5
2023-05-01T04:33:05.700Z,1.5
2023-05-01T04:35:05.140Z,1.6
2023-05-01T04:37:04.465Z,1.5
2023-05-01T04:39:04.683Z,1.4
2023-05-01T04:41:05.006Z,1.3
2023-05-01T04:43:06.675Z,1.5
2023-05-01T04:45:08.422Z,1.9
2023-05-01T04:47:05.137Z,1.5
2023-05-01T04:49:05.167Z,1.4
2023-05-01T04:51:07.211Z,1.4
2023-05-01T04:53:05.898Z,1.3
2023-05-01T04:55:09.418Z,1.1
2023-05-01T04:57:05.903Z,1.3
2023-05-01T04:59:06.195Z,1.1
2023-05-01T05:01:06.365Z,1.3
2023-05-01T05:03:06.369Z,1.3
2023-05-01T05:05:06.776Z,1.3
2023-05-01T05:07:21.648Z,1.5
2023-05-01T05:09:06.792Z,1.6
2023-05-01T05:11:20.320Z,1.4
2023-05-01T05:13:07.532Z,1.5
2023-05-01T05:15:08.057Z,1.8
2023-05-01T05:17:07.074Z,1.9
2023-05-01T05:19:10.004Z,1.2
2023-05-01T05:21:07.674Z,1.4
2023-05-01T05:23:08.620Z,1.2
2023-05-01T05:25:08.498Z,1.5
2023-05-01T05:27:07.704Z,1.5
2023-05-01T05:29:07.892Z,1.3
2023-05-01T05:31:08.428Z,1.4
2023-05-01T05:33:08.603Z,1.5
2023-05-01T05:35:08.601Z,1.7
2023-05-01T05:37:11.760Z,1.5
2023-05-01T05:39:09.006Z,1.6
2023-05-01T05:41:09.072Z,1.5
2023-05-01T05:43:09.206Z,1.7
2023-05-01T05:45:09.803Z,2.3
2023-05-01T05:47:09.166Z,1.4
2023-05-01T05:49:09.415Z,1.4
2023-05-01T05:51:09.444Z,2
2023-05-01T05:53:09.968Z,1.7
2023-05-01T05:55:10.130Z,2.1
2023-05-01T05:57:12.920Z,2.5
2023-05-01T05:59:10.232Z,1.6
2023-05-01T06:01:10.926Z,1.5
2023-05-01T06:03:10.758Z,1.5
2023-05-01T06:05:10.438Z,1.6
2023-05-01T06:07:10.535Z,1.4
2023-05-01T06:09:10.965Z,1.5
2023-05-01T06:11:12.420Z,1.3
2023-05-01T06:13:14.525Z,1.4
2023-05-01T06:15:15.216Z,1.3
2023-05-01T06:17:11.513Z,1.3
2023-05-01T06:19:11.900Z,1.3
2023-05-01T06:21:12.101Z,1.5
2023-05-01T06:23:17.952Z,1.2
2023-05-01T06:25:12.088Z,1.5
2023-05-01T06:27:12.152Z,1.5
2023-05-01T06:29:12.452Z,1.6
2023-05-01T06:31:16.895Z,1.5
2023-05-01T06:33:12.836Z,1.5
2023-05-01T06:35:13.097Z,2.2
2023-05-01T06:37:12.988Z,1.3
2023-05-01T06:39:13.349Z,1.5
2023-05-01T06:41:13.703Z,1.3
2023-05-01T06:43:13.723Z,1.4
2023-05-01T06:45:13.664Z,1.6
2023-05-01T06:47:14.253Z,1.7
2023-05-01T06:49:14.103Z,1.6
2023-05-01T06:51:14.168Z,1.8
2023-05-01T06:53:14.348Z,1.7
2023-05-01T06:55:14.499Z,1.7
2023-05-01T06:57:14.623Z,1.7
2023-05-01T06:59:14.878Z,1.7
2023-05-01T07:01:15.999Z,1.9
2023-05-01T07:03:15.342Z,1.9
2023-05-01T07:05:15.581Z,2.1
2023-05-01T07:07:15.637Z,1.7
2023-05-01T07:09:16.357Z,1.8
2023-05-01T07:11:16.059Z,1.8
2023-05-01T07:13:16.517Z,1.7
2023-05-01T07:15:16.305Z,1.8
2023-05-01T07:17:16.479Z,1.9
2023-05-01T07:19:16.703Z,1.9
2023-05-01T07:21:16.921Z,1.8
2023-05-01T07:23:17.034Z,2.8
2023-05-01T07:25:17.574Z,2
2023-05-01T07:27:17.420Z,2.1
2023-05-01T07:29:17.772Z,1.9
2023-05-01T07:31:17.998Z,2.7
2023-05-01T07:33:18.122Z,2.3
2023-05-01T07:35:18.268Z,2.2
2023-05-01T07:37:18.427Z,2.2
2023-05-01T07:39:18.576Z,2.2
2023-05-01T07:41:18.787Z,1.7
2023-05-01T07:43:19.018Z,1.8
2023-05-01T07:45:19.475Z,2.4
2023-05-01T07:47:19.400Z,2.2
2023-05-01T07:49:19.393Z,1.8
2023-05-01T07:51:19.744Z,1.8
2023-05-01T07:53:20.417Z,1.8
2023-05-01T07:55:21.363Z,1.7
2023-05-01T07:57:20.411Z,2
2023-05-01T07:59:20.430Z,1.8
2023-05-01T08:01:20.555Z,1.9
2023-05-01T08:03:20.829Z,1.9
2023-05-01T08:05:21.023Z,3
2023-05-01T08:07:21.277Z,2.2
2023-05-01T08:09:21.694Z,2.8
2023-05-01T08:11:21.666Z,1.9
2023-05-01T08:13:21.726Z,2.1
2023-05-01T08:15:21.972Z,2.2
2023-05-01T08:17:22.094Z,1.8
2023-05-01T08:19:23.050Z,2.7
2023-05-01T08:21:22.537Z,2.3
2023-05-01T08:23:22.687Z,2.2
2023-05-01T08:25:22.940Z,2.1
2023-05-01T08:27:23.136Z,3.3
2023-05-01T08:29:23.504Z,2.2
2023-05-01T08:31:23.537Z,2.1
2023-05-01T08:33:23.659Z,2
2023-05-01T08:35:23.919Z,2.1
2023-05-01T08:37:24.116Z,2.5
2023-05-01T08:39:24.292Z,1.7
2023-05-01T08:41:26.461Z,1.7
2023-05-01T08:43:25.984Z,1.9
2023-05-01T08:45:26.811Z,2.1
2023-05-01T08:47:26.460Z,1.8
2023-05-01T08:49:26.947Z,1.8
2023-05-01T08:51:27.007Z,2.5
2023-05-01T08:53:26.703Z,2.2
2023-05-01T08:55:29.404Z,2
2023-05-01T08:57:28.332Z,2.1
2023-05-01T08:59:28.238Z,2.2
2023-05-01T09:01:28.747Z,2.3
2023-05-01T09:03:30.898Z,2
2023-05-01T09:05:27.684Z,2.3
2023-05-01T09:07:29.027Z,1.9
2023-05-01T09:09:29.024Z,2
2023-05-01T09:11:29.488Z,1.8
2023-05-01T09:13:28.723Z,2.1
2023-05-01T09:15:29.515Z,2.6
2023-05-01T09:17:31.315Z,3.1
2023-05-01T09:19:29.598Z,2.6
2023-05-01T09:21:30.046Z,2.7
2023-05-01T09:23:30.063Z,2.1
2023-05-01T09:25:30.295Z,2.4
2023-05-01T09:27:34.009Z,2.3
2023-05-01T09:29:38.116Z,2.3
2023-05-01T09:31:31.376Z,3.3
2023-05-01T09:33:31.481Z,4.2
2023-05-01T09:35:31.804Z,2.5
2023-05-01T09:37:33.490Z,2.8
2023-05-01T09:39:32.446Z,3.5
2023-05-01T09:41:32.777Z,2.2
2023-05-01T09:43:33.393Z,2.4
2023-05-01T09:45:33.383Z,2.2
2023-05-01T09:47:34.408Z,1.9
2023-05-01T09:49:48.684Z,1.8
2023-05-01T09:51:34.949Z,2.4
2023-05-01T09:53:38.129Z,2.2
2023-05-01T09:55:34.794Z,1.8
2023-05-01T09:57:35.247Z,2.1
2023-05-01T09:59:35.360Z,3.1
2023-05-01T10:01:40.161Z,2.4
2023-05-01T10:03:36.817Z,2.8
2023-05-01T10:05:42.989Z,2.4
2023-05-01T10:07:37.330Z,2.7
2023-05-01T10:09:36.805Z,2
2023-05-01T10:11:50.276Z,2.2
2023-05-01T10:13:37.459Z,2.4
2023-05-01T10:15:37.765Z,2.5
2023-05-01T10:17:39.310Z,3.4
2023-05-01T10:19:38.575Z,2.9
2023-05-01T10:21:38.793Z,3.9
2023-05-01T10:23:38.944Z,2.7
2023-05-01T10:25:41.469Z,3.3
2023-05-01T10:27:40.545Z,3.2
2023-05-01T10:29:40.543Z,2.8
2023-05-01T10:31:42.278Z,2.6
2023-05-01T10:33:40.832Z,2.5
2023-05-01T10:35:45.470Z,2.2
2023-05-01T10:37:47.498Z,1.9
2023-05-01T10:39:41.301Z,2.1
2023-05-01T10:42:04.036Z,2.1
2023-05-01T10:43:42.571Z,2.2
2023-05-01T10:45:42.619Z,2.8
2023-05-01T10:47:45.499Z,3.2
2023-05-01T10:50:05.144Z,2.9
2023-05-01T10:51:58.328Z,5.8
2023-05-01T10:53:44.664Z,5.4
2023-05-01T10:55:44.769Z,4.2
2023-05-01T10:57:44.066Z,4.9
2023-05-01T11:00:13.570Z,3.6
2023-05-01T11:01:45.530Z,3.2
2023-05-01T11:03:44.676Z,2.3
2023-05-01T11:06:07.470Z,3
2023-05-01T11:07:45.340Z,3
2023-05-01T11:09:46.908Z,1.9
2023-05-01T11:11:47.280Z,2.1
2023-05-01T11:14:01.339Z,2.1
2023-05-01T11:15:46.614Z,1.9
2023-05-01T11:17:47.475Z,1.8
2023-05-01T11:19:47.221Z,1.9
2023-05-01T11:21:47.862Z,1.8
2023-05-01T11:23:47.627Z,2
2023-05-01T11:25:48.324Z,1.9
2023-05-01T11:27:49.712Z,2.1
2023-05-01T11:29:49.622Z,1.8
2023-05-01T11:31:48.954Z,1.9
2023-05-01T11:33:49.385Z,2
2023-05-01T11:35:58.331Z,2.1
2023-05-01T11:37:50.563Z,3
2023-05-01T11:39:51.234Z,2.4
2023-05-01T11:41:50.324Z,2.4
2023-05-01T11:43:51.482Z,2.7
2023-05-01T11:45:52.926Z,3.1
2023-05-01T11:47:51.397Z,4.6
2023-05-01T11:49:52.757Z,3.4
2023-05-01T11:51:56.437Z,3.7
2023-05-01T11:53:59.641Z,2.9
2023-05-01T11:55:52.326Z,5.2
2023-05-01T11:57:53.266Z,2.9
2023-05-01T11:59:52.712Z,3.2
2023-05-01T12:01:53.057Z,3
2023-05-01T12:03:53.258Z,2.7
2023-05-01T12:05:53.424Z,3.5
2023-05-01T12:08:07.532Z,3.1
2023-05-01T12:09:53.990Z,2.3
2023-05-01T12:11:54.582Z,3.1
2023-05-01T12:13:54.678Z,2.9
2023-05-01T12:15:56.214Z,2.6
2023-05-01T12:17:56.550Z,3.1
2023-05-01T12:19:55.602Z,2.9
2023-05-01T12:22:10.268Z,2.9
2023-05-01T12:23:56.028Z,3.7
2023-05-01T12:25:56.295Z,3.5
2023-05-01T12:27:56.987Z,3.4
2023-05-01T12:29:56.727Z,3
2023-05-01T12:31:58.260Z,2.8
2023-05-01T12:33:58.946Z,3.5
2023-05-01T12:36:09.500Z,3.2
2023-05-01T12:37:58.109Z,3
2023-05-01T12:39:58.833Z,3.2
2023-05-01T12:41:58.572Z,3.6
2023-05-01T12:43:58.677Z,3.7
2023-05-01T12:46:00.033Z,3.2
2023-05-01T12:47:59.212Z,3
2023-05-01T12:50:03.502Z,2.8
2023-05-01T12:52:00.774Z,2.7
2023-05-01T12:53:59.967Z,2.8
2023-05-01T12:56:00.014Z,2.6
2023-05-01T12:58:00.370Z,2.6
2023-05-01T13:00:02.559Z,2.3
2023-05-01T13:02:01.877Z,2.5
2023-05-01T13:04:00.903Z,2.9
2023-05-01T13:06:03.518Z,2.9
2023-05-01T13:08:02.207Z,3.3
2023-05-01T13:10:02.211Z,2.9
2023-05-01T13:12:03.635Z,3.1
2023-05-01T13:14:07.320Z,3.1
2023-05-01T13:16:05.202Z,3.8
2023-05-01T13:18:04.485Z,3.7
2023-05-01T13:20:04.068Z,2.8
2023-05-01T13:22:03.052Z,1.8
2023-05-01T13:24:02.992Z,2.3
2023-05-01T13:26:02.960Z,2.1
2023-05-01T13:28:04.173Z,1.9
2023-05-01T13:30:04.114Z,2.2
2023-05-01T13:32:04.352Z,1.6
2023-05-01T13:34:03.949Z,1.8
2023-05-01T13:36:14.326Z,1.7
2023-05-01T13:38:08.236Z,1.5
2023-05-01T13:40:05.117Z,1.4
2023-05-01T13:42:05.697Z,1.9
2023-05-01T13:44:06.263Z,2
2023-05-01T13:46:04.557Z,2.5
2023-05-01T13:48:05.162Z,2.1
2023-05-01T13:50:08.680Z,1.8
2023-05-01T13:52:04.940Z,1.8
2023-05-01T13:54:05.047Z,1.7
2023-05-01T13:56:06.328Z,2.1
2023-05-01T13:58:05.811Z,1.5
2023-05-01T14:00:13.220Z,1.6
2023-05-01T14:02:18.264Z,1.2
2023-05-01T14:04:08.745Z,1.2
2023-05-01T14:06:08.834Z,1.1
2023-05-01T14:08:07.800Z,1.4
2023-05-01T14:10:08.706Z,1.4
2023-05-01T14:12:06.319Z,1
2023-05-01T14:14:06.425Z,0.9
2023-05-01T14:16:07.645Z,1
2023-05-01T14:18:07.136Z,1
2023-05-01T14:20:07.896Z,0.6
2023-05-01T14:22:07.142Z,0.5
2023-05-01T14:24:08.167Z,0.6
2023-05-01T14:26:07.854Z,0.6
2023-05-01T14:28:07.424Z,0.7
2023-05-01T14:30:16.505Z,0.6
2023-05-01T14:32:08.136Z,0.6
2023-05-01T14:34:08.262Z,0.7
2023-05-01T14:36:07.909Z,0.6
2023-05-01T14:38:13.102Z,0.6
2023-05-01T14:40:12.092Z,1.5
2023-05-01T14:42:08.779Z,1
2023-05-01T14:44:12.026Z,0.9
2023-05-01T14:46:11.079Z,0.8
2023-05-01T14:48:10.992Z,1.1
2023-05-01T14:50:11.389Z,0.8
2023-05-01T14:52:09.590Z,1
2023-05-01T14:54:09.589Z,1.3
2023-05-01T14:56:09.476Z,1.1
2023-05-01T14:58:09.375Z,1.1
2023-05-01T15:00:10.746Z,0.7
2023-05-01T15:02:09.644Z,0.9
2023-05-01T15:04:09.805Z,0.6
2023-05-01T15:06:10.025Z,1.5
2023-05-01T15:08:10.031Z,2.4
2023-05-01T15:10:10.645Z,4.4
2023-05-01T15:12:10.374Z,6.5
2023-05-01T15:14:10.342Z,6.1
2023-05-01T15:16:11.352Z,6.4
2023-05-01T15:18:10.683Z,4.5
2023-05-01T15:20:11.218Z,4.1
2023-05-01T15:22:10.971Z,5
2023-05-01T15:24:11.054Z,4
2023-05-01T15:26:11.182Z,2.6
2023-05-01T15:28:12.604Z,1.6
2023-05-01T15:30:11.801Z,1.4
2023-05-01T15:32:12.809Z,0.9
2023-05-01T15:34:11.520Z,0.9
2023-05-01T15:36:11.747Z,0.8
2023-05-01T15:38:12.141Z,0.9
2023-05-01T15:40:12.212Z,0.8
2023-05-01T15:42:12.018Z,0.7
2023-05-01T15:44:12.107Z,0.8
2023-05-01T15:46:12.381Z,0.9
2023-05-01T15:48:12.411Z,0.6
2023-05-01T15:50:12.570Z,0.6
2023-05-01T15:52:12.927Z,0.9
2023-05-01T15:54:12.608Z,0.8
2023-05-01T15:56:12.755Z,0.8
2023-05-01T15:58:14.174Z,0.7
2023-05-01T16:00:13.962Z,0.7
2023-05-01T16:02:13.383Z,0.7
2023-05-01T16:04:13.741Z,0.5
2023-05-01T16:06:14.395Z,0.7
2023-05-01T16:08:13.643Z,0.6
2023-05-01T16:10:13.530Z,0.6
2023-05-01T16:12:13.709Z,0.6
2023-05-01T16:14:15.080Z,0.6
2023-05-01T16:16:21.476Z,0.7
2023-05-01T16:18:19.207Z,0.8
2023-05-01T16:20:13.969Z,0.6
2023-05-01T16:22:14.921Z,0.6
2023-05-01T16:24:14.410Z,0.7
2023-05-01T16:26:20.629Z,0.8
2023-05-01T16:28:15.861Z,0.8
2023-05-01T16:30:14.701Z,0.9
2023-05-01T16:32:16.474Z,0.6
2023-05-01T16:34:15.898Z,0.7
2023-05-01T16:36:15.440Z,0.7
2023-05-01T16:38:15.974Z,0.8
2023-05-01T16:40:16.526Z,0.8
2023-05-01T16:42:15.077Z,0.8
2023-05-01T16:44:16.670Z,0.8
2023-05-01T16:46:15.769Z,0.8
2023-05-01T16:48:20.118Z,0.8
2023-05-01T16:50:15.452Z,1
2023-05-01T16:52:15.611Z,0.7
2023-05-01T16:54:16.382Z,0.8
2023-05-01T16:56:15.974Z,0.9
2023-05-01T16:58:15.820Z,0.6
2023-05-01T17:00:16.531Z,0.9
2023-05-01T17:02:16.172Z,0.8
2023-05-01T17:04:16.076Z,0.9
2023-05-01T17:06:16.302Z,0.8
2023-05-01T17:08:16.374Z,1.1
2023-05-01T17:10:16.492Z,1.4
2023-05-01T17:12:16.495Z,1.2
2023-05-01T17:14:16.753Z,1.2
2023-05-01T17:16:16.893Z,1.2
2023-05-01T17:18:16.805Z,1.4
2023-05-01T17:20:17.253Z,1.7
2023-05-01T17:22:16.946Z,1.1
2023-05-01T17:24:17.173Z,1.2
2023-05-01T17:26:17.363Z,1.2
2023-05-01T17:28:17.382Z,1.2
2023-05-01T17:30:17.685Z,0.9
2023-05-01T17:32:33.205Z,1.1
2023-05-01T17:34:17.678Z,2.9
2023-05-01T17:36:17.830Z,2.8
2023-05-01T17:38:17.844Z,2.7
2023-05-01T17:40:18.349Z,2
2023-05-01T17:42:18.137Z,1.3
2023-05-01T17:44:18.126Z,1.3
2023-05-01T17:46:18.323Z,1.1
2023-05-01T17:48:18.444Z,1.6
2023-05-01T17:50:19.111Z,2.5
2023-05-01T17:52:18.613Z,1.9
2023-05-01T17:54:18.741Z,1.8
2023-05-01T17:56:18.926Z,1.9
2023-05-01T17:58:18.980Z,2.8
2023-05-01T18:00:20.500Z,2.6
2023-05-01T18:02:19.298Z,2.2
2023-05-01T18:04:19.378Z,1.7
2023-05-01T18:06:19.434Z,1.4
2023-05-01T18:08:19.468Z,1
2023-05-01T18:10:19.746Z,1.1
2023-05-01T18:12:19.595Z,1.1
2023-05-01T18:14:19.703Z,1.1
2023-05-01T18:16:20.041Z,1.2
2023-05-01T18:18:19.956Z,1.1
2023-05-01T18:20:20.334Z,1.3
2023-05-01T18:22:20.084Z,1.2
2023-05-01T18:24:20.451Z,1.3
2023-05-01T18:26:20.445Z,1.4
2023-05-01T18:28:20.456Z,1.6
2023-05-01T18:30:21.075Z,1.6
2023-05-01T18:32:20.647Z,1.6
2023-05-01T18:34:20.852Z,1.7
2023-05-01T18:36:20.938Z,1.8
2023-05-01T18:38:20.965Z,1.7
2023-05-01T18:40:21.198Z,2
2023-05-01T18:42:21.113Z,2.1
2023-05-01T18:44:21.332Z,1.9
2023-05-01T18:46:21.963Z,1.8
2023-05-01T18:48:21.418Z,1.7
2023-05-01T18:50:21.659Z,1.7
2023-05-01T18:52:21.586Z,1.7
2023-05-01T18:54:21.679Z,1.6
2023-05-01T18:56:21.903Z,1.6
2023-05-01T18:58:22.061Z,1.5
2023-05-01T19:00:22.405Z,1.3
2023-05-01T19:02:22.215Z,1.2
2023-05-01T19:04:22.223Z,1.2
2023-05-01T19:06:22.259Z,1.1
2023-05-01T19:08:22.547Z,1.4
2023-05-01T19:10:22.558Z,1
2023-05-01T19:12:22.695Z,1.5
2023-05-01T19:14:22.809Z,1.3
2023-05-01T19:16:23.212Z,1
2023-05-01T19:18:22.926Z,1
2023-05-01T19:20:23.032Z,0.9
2023-05-01T19:22:23.126Z,1.2
2023-05-01T19:24:23.258Z,1.2
2023-05-01T19:26:23.300Z,0.9
2023-05-01T19:28:23.512Z,1.1
2023-05-01T19:30:23.661Z,0.9
2023-05-01T19:32:23.602Z,0.9
2023-05-01T19:34:23.615Z,0.9
2023-05-01T19:36:23.811Z,1
2023-05-01T19:38:23.967Z,0.9
2023-05-01T19:40:24.400Z,1
2023-05-01T19:42:24.052Z,1.1
2023-05-01T19:44:24.060Z,0.9
2023-05-01T19:46:24.366Z,0.9
2023-05-01T19:48:25.026Z,1
2023-05-01T19:50:24.569Z,0.9
2023-05-01T19:52:24.505Z,1
2023-05-01T19:54:24.832Z,1.1
2023-05-01T19:56:24.621Z,1
2023-05-01T19:58:25.284Z,1.1
2023-05-01T20:00:24.968Z,1
2023-05-01T20:02:25.034Z,1
2023-05-01T20:04:25.102Z,1
2023-05-01T20:06:25.297Z,1.1
2023-05-01T20:08:25.124Z,1.3
2023-05-01T20:10:25.412Z,1
2023-05-01T20:12:25.757Z,1.2
2023-05-01T20:14:25.416Z,1
2023-05-01T20:16:25.605Z,1.3
2023-05-01T20:18:25.698Z,1
2023-05-01T20:20:25.734Z,1.1
2023-05-01T20:22:25.801Z,1.2
2023-05-01T20:24:25.966Z,1
2023-05-01T20:26:26.000Z,1.1
2023-05-01T20:28:26.102Z,1.1
2023-05-01T20:30:26.688Z,1.2
2023-05-01T20:32:26.313Z,1.3
2023-05-01T20:34:26.525Z,1.2
2023-05-01T20:36:26.517Z,1.3
2023-05-01T20:38:26.952Z,1.3
2023-05-01T20:40:26.724Z,1.1
2023-05-01T20:42:26.765Z,1.3
2023-05-01T20:44:26.903Z,1.2
2023-05-01T20:46:27.240Z,1.3
2023-05-01T20:48:27.011Z,1.3
2023-05-01T20:50:27.381Z,1.4
2023-05-01T20:52:27.335Z,1.5
2023-05-01T20:54:27.239Z,1.7
2023-05-01T20:56:27.358Z,1.5
2023-05-01T20:58:27.433Z,1.4
2023-05-01T21:00:27.481Z,1.3
2023-05-01T21:02:27.590Z,1.4
2023-05-01T21:04:28.614Z,1.4
2023-05-01T21:06:30.645Z,1.7
2023-05-01T21:08:28.301Z,1.5
2023-05-01T21:10:27.852Z,1.6
2023-05-01T21:12:28.443Z,1.6
2023-05-01T21:14:28.075Z,1.7
2023-05-01T21:16:28.077Z,1.6
2023-05-01T21:18:32.756Z,1.7
2023-05-01T21:20:31.157Z,1.8
2023-05-01T21:22:28.225Z,1.8
2023-05-01T21:24:28.343Z,1.7
2023-05-01T21:26:28.882Z,1.8
2023-05-01T21:28:28.464Z,1.9
2023-05-01T21:30:30.635Z,1.9
2023-05-01T21:32:30.849Z,1.9
2023-05-01T21:34:28.678Z,1.9
2023-05-01T21:36:28.897Z,1.8
2023-05-01T21:38:28.764Z,2
2023-05-01T21:40:28.816Z,1.9
2023-05-01T21:42:33.817Z,1.7
2023-05-01T21:44:29.817Z,1.5
2023-05-01T21:46:29.260Z,1.5
2023-05-01T21:48:32.328Z,1.4
2023-05-01T21:50:34.018Z,1.5
2023-05-01T21:52:29.198Z,1.5
2023-05-01T21:54:30.721Z,1.7
2023-05-01T21:56:30.292Z,1.4
2023-05-01T21:58:29.486Z,1.2
2023-05-01T22:00:29.775Z,1.4
2023-05-01T22:02:34.957Z,1.4
2023-05-01T22:04:29.606Z,1.5
2023-05-01T22:06:29.837Z,1.5
2023-05-01T22:08:29.678Z,1.5
2023-05-01T22:10:29.780Z,1.7
2023-05-01T22:12:29.856Z,1.6
2023-05-01T22:14:40.217Z,1.5
2023-05-01T22:16:30.668Z,1.4
2023-05-01T22:18:29.962Z,1.5
2023-05-01T22:20:30.092Z,1.3
2023-05-01T22:22:30.268Z,1.4
2023-05-01T22:24:30.131Z,1.6
2023-05-01T22:26:30.123Z,1.4
2023-05-01T22:28:30.381Z,1.5
2023-05-01T22:30:30.318Z,1.6
2023-05-01T22:32:30.434Z,2.2
2023-05-01T22:34:30.410Z,1.7
2023-05-01T22:36:30.407Z,1.7
2023-05-01T22:38:30.644Z,1.4
2023-05-01T22:40:30.633Z,1.4
2023-05-01T22:42:30.578Z,1.3
2023-05-01T22:44:30.773Z,1.6
2023-05-01T22:46:30.803Z,1.4
2023-05-01T22:48:30.704Z,1.7
2023-05-01T22:50:30.775Z,1.5
2023-05-01T22:52:30.911Z,1.6
2023-05-01T22:54:30.953Z,1.8
2023-05-01T22:56:30.915Z,1.7
2023-05-01T22:58:31.185Z,1.6
2023-05-01T23:00:31.009Z,1.7
2023-05-01T23:02:32.590Z,1.5
2023-05-01T23:04:31.299Z,1.7
2023-05-01T23:06:31.154Z,1.9
2023-05-01T23:08:31.317Z,1.7
2023-05-01T23:10:33.540Z,1.8
2023-05-01T23:12:31.947Z,1.8
2023-05-01T23:14:31.340Z,1.9
2023-05-01T23:16:38.840Z,1.7
2023-05-01T23:18:32.187Z,1.7
2023-05-01T23:20:31.447Z,1.7
2023-05-01T23:22:34.406Z,1.9
2023-05-01T23:24:40.339Z,1.9
2023-05-01T23:26:31.957Z,1.7
2023-05-01T23:28:31.583Z,3.3
2023-05-01T23:30:31.742Z,1.8
2023-05-01T23:32:32.625Z,1.8
2023-05-01T23:34:31.817Z,1.7
2023-05-01T23:36:31.699Z,1.8
2023-05-01T23:38:31.734Z,1.8
2023-05-01T23:40:31.939Z,1.8
2023-05-01T23:42:32.812Z,1.7
2023-05-01T23:44:31.962Z,1.7
2023-05-01T23:46:31.998Z,1.7
2023-05-01T23:48:32.724Z,1.7
2023-05-01T23:50:32.454Z,1.9
2023-05-01T23:52:32.247Z,2
2023-05-01T23:54:32.055Z,1.9
2023-05-01T23:56:32.032Z,1.9
2023-05-01T23:58:32.147Z,1.8
